createdAt,value
2022-09-13T00:02:51.521Z,8.8
2022-09-13T00:07:51.511Z,8.8
2022-09-13T00:12:51.363Z,8.8
2022-09-13T00:17:51.452Z,8.7
2022-09-13T00:22:51.174Z,8.7
2022-09-13T00:27:51.295Z,8.6
2022-09-13T00:32:51.675Z,8.6
2022-09-13T00:37:51.574Z,8.6
2022-09-13T00:42:51.225Z,8.5
2022-09-13T00:47:51.366Z,8.5
2022-09-13T00:52:51.192Z,8.5
2022-09-13T00:57:51.206Z,8.5
2022-09-13T01:02:51.381Z,8.6
2022-09-13T01:07:51.194Z,8.6
2022-09-13T01:12:51.201Z,8.6
2022-09-13T01:17:51.371Z,8.6
2022-09-13T01:22:51.105Z,8.6
2022-09-13T01:27:51.277Z,8.6
2022-09-13T01:32:51.273Z,8.6
2022-09-13T01:37:51.057Z,8.5
2022-09-13T01:42:52.225Z,8.5
2022-09-13T01:47:51.263Z,8.3
2022-09-13T01:52:51.198Z,8.3
2022-09-13T01:57:51.120Z,8.2
2022-09-13T02:02:51.246Z,8.2
2022-09-13T02:07:51.140Z,8.2
2022-09-13T02:12:51.055Z,8.2
2022-09-13T02:17:51.393Z,8.2
2022-09-13T02:22:51.111Z,8.2
2022-09-13T02:27:50.984Z,8.2
2022-09-13T02:32:51.257Z,8.2
2022-09-13T02:37:51.084Z,8.2
2022-09-13T02:42:51.052Z,8.3
2022-09-13T02:47:51.225Z,8.3
2022-09-13T02:52:51.017Z,8.3
2022-09-13T02:57:51.012Z,8.4
2022-09-13T03:02:51.148Z,8.5
2022-09-13T03:07:50.994Z,8.6
2022-09-13T03:12:50.839Z,8.6
2022-09-13T03:17:50.948Z,8.7
2022-09-13T03:22:51.343Z,8.8
2022-09-13T03:27:50.920Z,8.9
2022-09-13T03:32:51.135Z,9.0
2022-09-13T03:37:51.022Z,9.0
2022-09-13T03:42:50.857Z,9.1
2022-09-13T03:47:50.848Z,9.1
2022-09-13T03:52:51.044Z,9.2
2022-09-13T03:57:50.865Z,9.2
2022-09-13T04:02:50.833Z,9.2
2022-09-13T04:07:50.919Z,9.2
2022-09-13T04:12:50.772Z,9.2
2022-09-13T04:17:50.816Z,9.2
2022-09-13T04:22:51.603Z,9.2
2022-09-13T04:27:50.751Z,9.1
2022-09-13T04:32:50.943Z,9.1
2022-09-13T04:37:50.977Z,9.2
2022-09-13T04:42:50.900Z,9.2
2022-09-13T04:47:50.958Z,9.2
2022-09-13T04:52:51.042Z,9.1
2022-09-13T04:57:50.891Z,9.1
2022-09-13T05:02:50.654Z,9.1
2022-09-13T05:07:51.344Z,9.1
2022-09-13T05:12:50.804Z,9.0
2022-09-13T05:17:51.096Z,9.0
2022-09-13T05:22:50.669Z,9.0
2022-09-13T05:27:50.934Z,9.0
2022-09-13T05:32:50.737Z,9.0
2022-09-13T05:37:50.742Z,9.0
2022-09-13T05:42:50.809Z,9.1
2022-09-13T05:47:50.683Z,9.2
2022-09-13T05:52:50.765Z,9.2
2022-09-13T05:57:51.798Z,9.3
2022-09-13T06:02:51.716Z,9.4
2022-09-13T06:07:50.697Z,9.5
2022-09-13T06:12:50.738Z,9.6
2022-09-13T06:17:51.513Z,9.7
2022-09-13T06:22:50.550Z,9.8
2022-09-13T06:27:50.758Z,9.9
2022-09-13T06:32:50.672Z,10.1
2022-09-13T06:37:50.876Z,10.2
2022-09-13T06:42:50.585Z,10.3
2022-09-13T06:47:50.614Z,10.5
2022-09-13T06:52:50.873Z,10.7
2022-09-13T06:57:50.545Z,10.9
2022-09-13T07:02:50.987Z,11.1
2022-09-13T07:07:50.945Z,11.2
2022-09-13T07:12:50.598Z,11.4
2022-09-13T07:17:50.968Z,11.4
2022-09-13T07:22:50.448Z,11.5
2022-09-13T07:27:50.520Z,11.7
2022-09-13T07:32:50.682Z,11.9
2022-09-13T07:37:50.740Z,12.1
2022-09-13T07:42:51.028Z,12.2
2022-09-13T07:47:51.197Z,12.3
2022-09-13T07:52:50.635Z,12.4
2022-09-13T07:57:50.662Z,12.6
2022-09-13T08:02:50.400Z,12.9
2022-09-13T08:07:50.934Z,13.2
2022-09-13T08:12:50.427Z,13.4
2022-09-13T08:17:50.716Z,13.7
2022-09-13T08:22:50.314Z,13.9
2022-09-13T08:27:50.492Z,14.0
2022-09-13T08:32:50.357Z,14.2
2022-09-13T08:37:50.545Z,14.6
2022-09-13T08:42:50.487Z,14.8
2022-09-13T08:47:50.736Z,15.2
2022-09-13T08:52:50.553Z,15.5
2022-09-13T08:57:50.457Z,15.7
2022-09-13T09:02:50.417Z,15.8
2022-09-13T09:07:50.876Z,16.0
2022-09-13T09:12:50.774Z,16.3
2022-09-13T09:17:50.686Z,16.6
2022-09-13T09:22:50.556Z,16.8
2022-09-13T09:27:50.673Z,17.0
2022-09-13T09:32:50.598Z,17.1
2022-09-13T09:37:50.621Z,17.2
2022-09-13T09:42:50.372Z,17.6
2022-09-13T09:47:50.399Z,17.8
2022-09-13T09:52:50.475Z,17.9
2022-09-13T09:57:50.362Z,17.9
2022-09-13T10:02:50.290Z,18.1
2022-09-13T10:07:50.197Z,18.5
2022-09-13T10:12:50.433Z,18.6
2022-09-13T10:17:50.293Z,18.5
2022-09-13T10:22:50.177Z,18.6
2022-09-13T10:32:50.247Z,18.6
2022-09-13T10:37:50.550Z,18.7
2022-09-13T10:42:51.080Z,18.8
2022-09-13T10:47:50.212Z,19.0
2022-09-13T10:52:50.190Z,18.9
2022-09-13T10:57:50.482Z,18.9
2022-09-13T11:02:50.175Z,19.2
2022-09-13T11:07:50.318Z,19.4
2022-09-13T11:12:50.846Z,19.6
2022-09-13T11:17:50.185Z,19.7
2022-09-13T11:22:50.079Z,19.6
2022-09-13T11:27:50.593Z,19.8
2022-09-13T11:32:50.474Z,19.9
2022-09-13T11:42:50.474Z,19.9
2022-09-13T11:47:50.217Z,20.2
2022-09-13T11:52:50.228Z,20.4
2022-09-13T11:57:50.499Z,20.3
2022-09-13T12:02:50.774Z,20.0
2022-09-13T12:07:52.181Z,19.8
2022-09-13T12:12:51.318Z,19.6
2022-09-13T12:17:52.049Z,19.5
2022-09-13T12:22:49.984Z,19.3
2022-09-13T12:27:51.199Z,19.2
2022-09-13T12:32:50.003Z,19.0
2022-09-13T12:37:50.064Z,19.0
2022-09-13T12:42:50.602Z,19.0
2022-09-13T12:47:50.131Z,19.1
2022-09-13T12:52:50.215Z,19.2
2022-09-13T12:57:50.285Z,19.4
2022-09-13T13:02:54.278Z,19.5
2022-09-13T13:07:50.932Z,19.4
2022-09-13T13:12:50.758Z,19.4
2022-09-13T13:17:50.049Z,19.4
2022-09-13T13:22:50.016Z,19.6
2022-09-13T13:27:52.163Z,19.9
2022-09-13T13:37:50.296Z,20.0
2022-09-13T13:42:51.361Z,20.0
2022-09-13T13:47:51.695Z,19.8
2022-09-13T13:52:51.223Z,19.6
2022-09-13T13:57:49.900Z,19.5
2022-09-13T14:02:50.395Z,19.4
2022-09-13T14:12:50.214Z,19.3
2022-09-13T14:17:50.090Z,19.3
2022-09-13T14:22:51.154Z,19.2
2022-09-13T14:27:50.259Z,19.1
2022-09-13T14:32:50.943Z,19.1
2022-09-13T14:37:50.371Z,19.0
2022-09-13T14:42:49.874Z,18.9
2022-09-13T14:47:50.410Z,18.8
2022-09-13T14:52:54.227Z,18.8
2022-09-13T14:57:50.380Z,18.7
2022-09-13T15:02:50.161Z,18.6
2022-09-13T15:07:50.439Z,18.6
2022-09-13T15:12:50.741Z,18.7
2022-09-13T15:17:49.954Z,18.8
2022-09-13T15:22:49.880Z,18.9
2022-09-13T15:27:50.948Z,18.9
2022-09-13T15:32:50.085Z,18.8
2022-09-13T15:37:50.126Z,18.7
2022-09-13T15:42:50.307Z,18.7
2022-09-13T15:47:49.733Z,18.6
2022-09-13T15:52:49.758Z,18.6
2022-09-13T15:57:50.104Z,18.5
2022-09-13T16:02:49.864Z,18.5
2022-09-13T16:07:49.887Z,18.4
2022-09-13T16:12:50.559Z,18.4
2022-09-13T16:17:50.177Z,18.3
2022-09-13T16:22:49.666Z,18.3
2022-09-13T16:27:50.549Z,18.2
2022-09-13T16:32:50.373Z,18.1
2022-09-13T16:37:50.816Z,18.1
2022-09-13T16:42:51.289Z,18.0
2022-09-13T16:47:49.999Z,18.0
2022-09-13T16:52:49.711Z,17.9
2022-09-13T16:57:49.758Z,17.8
2022-09-13T17:02:49.806Z,17.8
2022-09-13T17:07:49.738Z,17.7
2022-09-13T17:12:50.615Z,17.6
2022-09-13T17:17:49.593Z,17.5
2022-09-13T17:22:49.883Z,17.5
2022-09-13T17:27:50.080Z,17.5
2022-09-13T17:32:49.741Z,17.4
2022-09-13T17:42:50.685Z,17.3
2022-09-13T17:47:49.612Z,17.2
2022-09-13T17:52:49.705Z,17.1
2022-09-13T17:57:50.267Z,17.0
2022-09-13T18:02:49.980Z,16.9
2022-09-13T18:07:49.615Z,16.8
2022-09-13T18:12:49.639Z,16.8
2022-09-13T18:17:49.648Z,16.7
2022-09-13T18:22:49.857Z,16.7
2022-09-13T18:27:50.021Z,16.7
2022-09-13T18:32:49.631Z,16.6
2022-09-13T18:37:49.567Z,16.6
2022-09-13T18:42:50.609Z,16.6
2022-09-13T18:47:49.638Z,16.5
2022-09-13T18:52:53.285Z,16.5
2022-09-13T18:57:49.508Z,16.5
2022-09-13T19:03:10.857Z,16.5
2022-09-13T19:07:50.100Z,16.4
2022-09-13T19:12:49.506Z,16.4
2022-09-13T19:17:49.682Z,16.4
2022-09-13T19:22:49.738Z,16.4
2022-09-13T19:27:51.817Z,16.4
2022-09-13T19:32:50.219Z,16.4
2022-09-13T19:37:49.660Z,16.4
2022-09-13T19:42:49.382Z,16.3
2022-09-13T19:52:49.451Z,16.3
2022-09-13T19:57:50.518Z,16.3
2022-09-13T20:02:49.407Z,16.2
2022-09-13T20:07:49.271Z,16.2
2022-09-13T20:12:49.341Z,16.2
2022-09-13T20:17:49.265Z,16.1
2022-09-13T20:22:49.545Z,16.1
2022-09-13T20:27:49.424Z,16.1
2022-09-13T20:32:49.371Z,16.1
2022-09-13T20:37:49.367Z,16.1
2022-09-13T20:42:49.363Z,16.1
2022-09-13T20:47:49.562Z,16.1
2022-09-13T20:52:49.325Z,16.1
2022-09-13T20:57:49.365Z,16.1
2022-09-13T21:02:49.688Z,16.1
2022-09-13T21:07:49.262Z,16.1
2022-09-13T21:12:49.491Z,16.1
2022-09-13T21:17:49.487Z,16.0
2022-09-13T21:22:49.198Z,16.0
2022-09-13T21:27:49.305Z,16.0
2022-09-13T21:32:49.361Z,16.0
2022-09-13T21:37:49.201Z,16.0
2022-09-13T21:42:49.395Z,16.0
2022-09-13T21:47:49.420Z,15.9
2022-09-13T21:52:49.189Z,15.9
2022-09-13T21:57:49.148Z,15.8
2022-09-13T22:02:49.398Z,15.7
2022-09-13T22:07:49.113Z,15.6
2022-09-13T22:12:49.135Z,15.6
2022-09-13T22:17:49.213Z,15.5
2022-09-13T22:22:49.115Z,15.5
2022-09-13T22:27:49.110Z,15.4
2022-09-13T22:32:49.290Z,15.4
2022-09-13T22:37:49.082Z,15.3
2022-09-13T22:42:49.146Z,15.2
2022-09-13T22:47:49.099Z,15.1
2022-09-13T22:52:49.384Z,15.0
2022-09-13T22:57:49.407Z,15.0
2022-09-13T23:02:49.184Z,14.9
2022-09-13T23:07:49.034Z,14.9
2022-09-13T23:12:49.089Z,14.8
2022-09-13T23:17:49.333Z,14.7
2022-09-13T23:22:49.206Z,14.6
2022-09-13T23:27:49.039Z,14.5
2022-09-13T23:32:48.986Z,14.4
2022-09-13T23:37:49.146Z,14.3
2022-09-13T23:42:49.052Z,14.3
2022-09-13T23:47:49.002Z,14.2
2022-09-13T23:52:49.143Z,14.2
2022-09-13T23:57:49.022Z,14.2
